Time;durP1;ratioP1;P1;durP2;ratioP2;P2;SDS_P1;SDS_P2;PMS_P1;PMS_P2;Temp;Humidity;BMP_temperature;BMP_pressure;BME280_temperature;BME280_humidity;BME280_pressure;Samples;Min_cycle;Max_cycle;Signal;HPM_P1;HPM_P2
2022/03/12 00:01:47;;;;;;;9.02;6.78;;;2.30;42.20;;;;;;5052947;28;20202;-52
2022/03/12 00:04:15;;;;;;;14.95;8.00;;;2.20;42.20;;;;;;5052972;28;20585;-52
2022/03/12 00:06:42;;;;;;;8.88;6.57;;;2.20;42.20;;;;;;5053009;28;20198;-52
2022/03/12 00:09:09;;;;;;;10.82;7.60;;;2.20;42.30;;;;;;5053103;28;20206;-54
2022/03/12 00:11:49;;;;;;;7.53;6.22;;;2.20;42.40;;;;;;5053422;28;20209;-53
2022/03/12 00:14:19;;;;;;;9.95;7.15;;;2.10;42.40;;;;;;5052952;28;20222;-54
2022/03/12 00:16:46;;;;;;;9.95;7.00;;;2.10;42.50;;;;;;5053457;28;20609;-54
2022/03/12 00:19:13;;;;;;;12.50;7.75;;;2.10;42.60;;;;;;5053500;28;20209;-53
2022/03/12 00:21:42;;;;;;;10.90;7.72;;;2.10;42.60;;;;;;5052899;28;20197;-53
2022/03/12 00:24:11;;;;;;;9.35;6.90;;;2.10;42.60;;;;;;5052892;28;20225;-53
2022/03/12 00:26:41;;;;;;;11.48;7.70;;;2.00;42.70;;;;;;5056774;28;20201;-53
2022/03/12 00:29:14;;;;;;;9.82;7.03;;;2.00;42.70;;;;;;5057810;28;20658;-52
2022/03/12 00:31:41;;;;;;;9.00;6.07;;;2.00;42.70;;;;;;5057458;28;20186;-53
2022/03/12 00:34:09;;;;;;;10.13;7.45;;;2.00;42.80;;;;;;5056657;28;20715;-53
2022/03/12 00:36:36;;;;;;;10.55;6.90;;;2.00;42.90;;;;;;5057158;28;20210;-53
2022/03/12 00:39:03;;;;;;;11.10;7.60;;;1.90;42.80;;;;;;5056807;28;20224;-53
2022/03/12 00:41:30;;;;;;;7.75;6.72;;;1.90;42.90;;;;;;5056446;28;20209;-54
2022/03/12 00:43:59;;;;;;;12.68;8.15;;;1.90;42.90;;;;;;5056911;28;20244;-53
2022/03/12 00:46:27;;;;;;;11.02;7.25;;;1.90;43.50;;;;;;5056459;28;20215;-52
2022/03/12 00:48:54;;;;;;;11.65;7.50;;;1.90;42.90;;;;;;5056739;28;20267;-52
2022/03/12 00:51:21;;;;;;;8.32;7.00;;;1.80;42.80;;;;;;5056405;28;20274;-53
2022/03/12 00:53:48;;;;;;;10.05;7.10;;;1.80;42.90;;;;;;5056433;28;20229;-52
2022/03/12 00:56:15;;;;;;;11.85;7.65;;;1.80;43.00;;;;;;5056123;28;20674;-52
2022/03/12 00:58:45;;;;;;;9.98;7.22;;;1.80;43.10;;;;;;5056141;28;20202;-53
2022/03/12 01:01:17;;;;;;;10.80;7.07;;;1.70;43.10;;;;;;5055943;28;20197;-52
2022/03/12 01:03:44;;;;;;;9.55;7.63;;;1.70;43.20;;;;;;5056250;28;20232;-53
2022/03/12 01:06:14;;;;;;;11.70;7.25;;;1.70;43.30;;;;;;5056197;28;20206;-53
2022/03/12 01:08:41;;;;;;;11.32;6.43;;;1.60;43.20;;;;;;5056372;28;20193;-52
2022/03/12 01:11:11;;;;;;;9.70;7.32;;;1.60;43.30;;;;;;5055863;28;20214;-53
2022/03/12 01:13:38;;;;;;;9.57;6.53;;;1.60;43.30;;;;;;5055680;28;20606;-52
2022/03/12 01:16:06;;;;;;;9.23;6.82;;;1.60;43.40;;;;;;5056176;28;20229;-52
2022/03/12 01:18:38;;;;;;;11.77;7.20;;;1.60;43.40;;;;;;5055660;28;20198;-52
2022/03/12 01:21:10;;;;;;;9.75;7.22;;;1.50;43.50;;;;;;5059616;28;20185;-52
2022/03/12 01:23:37;;;;;;;9.90;7.07;;;1.50;43.50;;;;;;5059726;28;20225;-52
2022/03/12 01:26:04;;;;;;;9.90;7.15;;;1.50;43.60;;;;;;5058338;28;20234;-53
2022/03/12 01:28:31;;;;;;;9.40;6.95;;;1.50;43.60;;;;;;5057427;28;20209;-54
2022/03/12 01:30:59;;;;;;;8.20;6.97;;;1.40;43.70;;;;;;5057373;28;20587;-53
2022/03/12 01:33:26;;;;;;;8.63;7.07;;;1.40;43.70;;;;;;5056814;28;20218;-53
2022/03/12 01:35:54;;;;;;;10.27;7.13;;;1.40;43.80;;;;;;5056154;28;20232;-53
2022/03/12 01:38:30;;;;;;;8.20;6.95;;;1.40;43.80;;;;;;5056534;28;20206;-53
2022/03/12 01:41:02;;;;;;;8.60;6.88;;;1.30;43.80;;;;;;5056048;28;20188;-54
2022/03/12 01:43:31;;;;;;;9.30;6.63;;;1.30;43.90;;;;;;5056001;28;20217;-53
2022/03/12 01:46:00;;;;;;;7.78;6.63;;;1.30;43.80;;;;;;5055875;28;20255;-53
2022/03/12 01:48:28;;;;;;;7.88;6.40;;;1.30;43.90;;;;;;5055526;28;20674;-54
2022/03/12 01:50:57;;;;;;;11.07;6.75;;;1.20;43.70;;;;;;5057442;28;20201;-53
2022/03/12 01:53:27;;;;;;;11.15;6.63;;;1.20;43.70;;;;;;5059665;28;20236;-53
2022/03/12 01:55:55;;;;;;;11.77;6.85;;;1.20;43.60;;;;;;5059826;28;20271;-53
2022/03/12 01:58:24;;;;;;;8.52;6.47;;;1.20;43.60;;;;;;5057987;28;20206;-53
2022/03/12 02:00:53;;;;;;;7.97;6.32;;;1.20;43.40;;;;;;5059336;28;20205;-53
2022/03/12 02:03:23;;;;;;;9.15;6.35;;;1.20;43.40;;;;;;5058027;28;20226;-53
2022/03/12 02:05:51;;;;;;;8.75;6.30;;;1.20;43.30;;;;;;5059291;28;20197;-51
2022/03/12 02:08:19;;;;;;;8.60;6.00;;;1.20;43.30;;;;;;5058204;28;20237;-52
2022/03/12 02:10:49;;;;;;;8.55;6.38;;;1.10;43.20;;;;;;5057976;28;20205;-53
2022/03/12 02:13:16;;;;;;;9.05;6.75;;;1.10;43.80;;;;;;5057895;28;20771;-54
2022/03/12 02:15:44;;;;;;;9.07;6.05;;;1.10;43.20;;;;;;5058217;28;20253;-52
2022/03/12 02:18:14;;;;;;;8.15;6.32;;;1.10;43.30;;;;;;5059156;28;20209;-52
2022/03/12 02:20:42;;;;;;;10.57;6.00;;;1.00;43.30;;;;;;5059912;28;20649;-53
2022/03/12 02:23:10;;;;;;;11.23;6.70;;;1.00;43.30;;;;;;5056199;28;20229;-53
2022/03/12 02:25:39;;;;;;;7.45;5.50;;;1.00;43.30;;;;;;5055864;28;20220;-53
2022/03/12 02:28:16;;;;;;;8.52;5.95;;;1.00;43.30;;;;;;5055769;28;20197;-52
2022/03/12 02:30:48;;;;;;;8.98;6.10;;;1.00;43.20;;;;;;5055286;28;20185;-53
2022/03/12 02:33:20;;;;;;;7.95;6.30;;;0.90;43.00;;;;;;5055345;28;20275;-52
2022/03/12 02:35:47;;;;;;;7.45;5.70;;;0.90;42.90;;;;;;5055200;28;20202;-53
2022/03/12 02:38:17;;;;;;;8.57;5.40;;;0.90;42.90;;;;;;5055229;28;20206;-52
2022/03/12 02:40:48;;;;;;;8.00;5.78;;;0.90;42.90;;;;;;5055210;28;20185;-53
2022/03/12 02:43:20;;;;;;;9.40;6.30;;;0.90;42.80;;;;;;5054891;28;20225;-54
2022/03/12 02:45:48;;;;;;;9.82;6.60;;;0.90;42.80;;;;;;5054984;28;20231;-53
2022/03/12 02:48:16;;;;;;;9.45;7.05;;;0.90;42.90;;;;;;5053693;28;20596;-52
2022/03/12 02:50:43;;;;;;;8.82;6.30;;;0.90;42.90;;;;;;5055066;28;20209;-53
2022/03/12 02:53:10;;;;;;;10.50;5.68;;;0.90;42.90;;;;;;5054134;28;20225;-53
2022/03/12 02:55:42;;;;;;;7.05;5.40;;;0.80;42.90;;;;;;5054849;28;20213;-53
2022/03/12 02:58:10;;;;;;;8.02;5.50;;;0.90;42.90;;;;;;5054222;28;20344;-53
2022/03/12 03:00:38;;;;;;;8.02;6.45;;;0.90;42.90;;;;;;5054194;28;20198;-54
2022/03/12 03:03:06;;;;;;;13.55;5.47;;;0.80;42.80;;;;;;5055387;28;20244;-54
2022/03/12 03:05:46;;;;;;;8.20;6.28;;;0.80;42.80;;;;;;5054431;28;20200;-53
2022/03/12 03:08:18;;;;;;;9.13;5.03;;;0.80;42.80;;;;;;5054003;28;20190;-53
2022/03/12 03:10:48;;;;;;;7.10;6.22;;;0.80;42.70;;;;;;5054074;28;20273;-53
2022/03/12 03:13:36;;;;;;;8.50;5.95;;;0.80;42.70;;;;;;5054016;28;20232;-53
2022/03/12 03:16:07;;;;;;;8.38;5.47;;;0.80;42.70;;;;;;5054324;28;20613;-54
2022/03/12 03:18:39;;;;;;;8.60;5.90;;;0.80;42.70;;;;;;5053853;28;20186;-54
2022/03/12 03:21:09;;;;;;;6.75;5.65;;;0.70;42.60;;;;;;5053603;28;20592;-52
2022/03/12 03:23:36;;;;;;;8.75;5.57;;;0.70;42.70;;;;;;5053429;28;20244;-54
2022/03/12 03:26:04;;;;;;;8.75;6.13;;;0.70;42.70;;;;;;5053970;28;20205;-54
2022/03/12 03:28:34;;;;;;;7.05;5.60;;;0.70;42.70;;;;;;5053674;28;20205;-53
2022/03/12 03:31:01;;;;;;;10.07;6.07;;;0.70;42.70;;;;;;5053527;28;20205;-53
2022/03/12 03:33:28;;;;;;;9.20;6.20;;;0.70;43.30;;;;;;5053505;28;20222;-53
2022/03/12 03:35:55;;;;;;;9.63;5.50;;;0.70;42.70;;;;;;5053636;28;20669;-53
2022/03/12 03:38:23;;;;;;;10.40;5.60;;;0.70;42.80;;;;;;5053568;28;20202;-54
2022/03/12 03:40:50;;;;;;;11.10;6.45;;;0.70;42.90;;;;;;5053721;28;20214;-53
2022/03/12 03:43:19;;;;;;;7.82;6.13;;;0.70;42.80;;;;;;5053725;28;20557;-54
2022/03/12 03:45:51;;;;;;;6.40;4.78;;;0.70;42.90;;;;;;5053836;28;20194;-52
2022/03/12 03:48:19;;;;;;;8.45;5.50;;;0.70;42.90;;;;;;5053711;28;20280;-54
2022/03/12 03:50:48;;;;;;;8.57;6.15;;;0.60;42.90;;;;;;5053405;28;20598;-53
2022/03/12 03:53:16;;;;;;;9.40;5.63;;;0.60;42.90;;;;;;5053704;28;20221;-53
2022/03/12 03:55:45;;;;;;;8.77;5.32;;;0.70;43.00;;;;;;5053175;28;20725;-54
2022/03/12 03:58:14;;;;;;;8.95;5.50;;;0.60;42.90;;;;;;5054517;28;20206;-53
2022/03/12 04:00:54;;;;;;;6.78;5.53;;;0.60;42.90;;;;;;5054088;28;20255;-53
2022/03/12 04:03:22;;;;;;;8.95;6.25;;;0.50;42.70;;;;;;5057221;28;20307;-54
2022/03/12 04:05:50;;;;;;;7.18;5.20;;;0.50;42.70;;;;;;5057614;28;20193;-53
2022/03/12 04:09:25;;;;;;;8.97;6.30;;;0.40;42.20;;;;;;5110192;27;1443407;-55
2022/03/12 04:11:52;;;;;;;7.38;5.82;;;0.40;42.70;;;;;;5133602;28;20650;-54
2022/03/12 04:14:19;;;;;;;9.05;5.50;;;0.40;42.80;;;;;;5119676;28;20216;-54
2022/03/12 04:16:46;;;;;;;7.93;5.32;;;0.40;42.90;;;;;;5121232;28;20202;-55
2022/03/12 04:19:14;;;;;;;7.70;6.60;;;0.40;43.10;;;;;;5118235;28;20200;-54
2022/03/12 04:21:42;;;;;;;7.88;5.88;;;0.30;43.10;;;;;;5121771;22;20223;-56
2022/03/12 04:24:09;;;;;;;6.60;5.32;;;0.30;43.10;;;;;;5090107;28;20200;-56
2022/03/12 04:26:42;;;;;;;8.90;6.22;;;0.30;43.20;;;;;;5090431;28;20305;-56
2022/03/12 04:29:09;;;;;;;6.75;5.72;;;0.30;43.30;;;;;;5090379;28;20205;-55
2022/03/12 04:31:36;;;;;;;6.25;5.25;;;0.20;43.20;;;;;;5103533;28;20258;-56
2022/03/12 04:34:03;;;;;;;5.80;5.20;;;0.20;43.30;;;;;;5110562;28;20206;-57
2022/03/12 04:36:34;;;;;;;6.50;5.10;;;0.20;43.40;;;;;;5110297;28;20671;-56
2022/03/12 04:39:01;;;;;;;10.20;6.03;;;0.20;43.40;;;;;;5110380;28;20184;-55
2022/03/12 04:41:35;;;;;;;7.30;5.05;;;0.10;43.40;;;;;;5110095;28;20220;-56
2022/03/12 04:44:06;;;;;;;11.77;6.15;;;0.10;43.50;;;;;;5110284;28;20223;-56
2022/03/12 04:46:33;;;;;;;8.30;5.30;;;0.10;43.50;;;;;;5110660;28;20222;-56
2022/03/12 04:49:00;;;;;;;5.75;5.15;;;0.10;43.50;;;;;;5110258;28;20211;-56
2022/03/12 04:51:29;;;;;;;5.95;4.40;;;0.00;43.50;;;;;;5110003;28;20711;-56
2022/03/12 04:53:57;;;;;;;5.65;4.68;;;0.00;43.60;;;;;;5110324;28;20253;-57
2022/03/12 04:56:25;;;;;;;5.93;4.75;;;0.00;43.70;;;;;;5110212;28;20232;-56
2022/03/12 04:58:53;;;;;;;7.07;5.00;;;0.00;43.90;;;;;;5110262;28;20204;-55
2022/03/12 05:01:21;;;;;;;7.07;5.00;;;0.00;43.90;;;;;;5109728;28;20221;-56
2022/03/12 05:03:49;;;;;;;6.78;5.03;;;0.10;43.90;;;;;;5109801;28;20203;-56
2022/03/12 05:06:17;;;;;;;9.93;4.70;;;0.10;43.90;;;;;;5110038;28;20575;-56
2022/03/12 05:08:44;;;;;;;7.18;5.03;;;0.10;43.80;;;;;;5110063;28;20272;-56
2022/03/12 05:11:12;;;;;;;7.82;5.15;;;0.10;43.80;;;;;;5110380;28;20306;-57
2022/03/12 05:13:39;;;;;;;5.93;4.85;;;0.00;43.70;;;;;;5109925;28;20199;-57
2022/03/12 05:16:08;;;;;;;7.28;5.38;;;0.00;43.70;;;;;;5109994;28;20200;-57
2022/03/12 05:18:38;;;;;;;7.03;4.43;;;0.00;43.70;;;;;;5109900;28;20204;-56
2022/03/12 05:21:07;;;;;;;6.72;5.00;;;0.00;43.60;;;;;;5096066;28;20229;-57
2022/03/12 05:23:34;;;;;;;6.40;5.05;;;0.00;43.60;;;;;;5096180;28;20204;-57
2022/03/12 05:26:01;;;;;;;6.65;4.40;;;0.00;43.60;;;;;;5095949;28;20200;-57
2022/03/12 05:28:32;;;;;;;7.43;5.22;;;0.10;43.60;;;;;;5096145;28;20588;-57
2022/03/12 05:31:04;;;;;;;5.82;4.35;;;0.10;43.50;;;;;;5095831;28;20600;-56
2022/03/12 05:33:31;;;;;;;7.63;5.28;;;0.10;43.40;;;;;;5096258;28;20189;-56
2022/03/12 05:36:00;;;;;;;6.07;4.60;;;0.10;43.50;;;;;;5095939;28;20204;-56
2022/03/12 05:38:31;;;;;;;6.85;5.85;;;0.10;43.60;;;;;;5095727;28;20196;-56
2022/03/12 05:40:59;;;;;;;7.70;5.15;;;0.20;43.60;;;;;;5095755;28;20223;-56
2022/03/12 05:43:29;;;;;;;6.57;4.90;;;0.20;43.40;;;;;;5095720;28;20232;-56
2022/03/12 05:45:56;;;;;;;6.63;4.60;;;0.20;43.30;;;;;;5095309;28;20206;-56
2022/03/12 05:48:23;;;;;;;7.15;5.38;;;0.20;43.20;;;;;;5095526;28;20285;-57
2022/03/12 05:50:51;;;;;;;8.65;5.00;;;0.30;43.40;;;;;;5095521;28;20236;-56
2022/03/12 05:53:20;;;;;;;6.30;4.78;;;0.30;43.50;;;;;;5095730;28;20201;-55
2022/03/12 05:55:48;;;;;;;6.43;4.95;;;0.40;43.60;;;;;;5095273;28;20239;-55
2022/03/12 05:58:17;;;;;;;5.68;4.25;;;0.40;43.50;;;;;;5095305;28;20679;-55
2022/03/12 06:00:45;;;;;;;9.65;6.07;;;0.50;43.50;;;;;;5095363;28;20228;-55
2022/03/12 06:03:12;;;;;;;5.80;4.25;;;0.60;43.40;;;;;;5095548;28;20200;-55
2022/03/12 06:05:43;;;;;;;11.30;5.32;;;0.70;43.20;;;;;;5096015;28;20205;-56
2022/03/12 06:08:21;;;;;;;7.75;5.40;;;0.80;42.90;;;;;;5096193;28;20238;-56
2022/03/12 06:10:51;;;;;;;10.18;5.25;;;0.80;42.50;;;;;;5095242;28;20289;-57
2022/03/12 06:13:18;;;;;;;7.75;4.97;;;0.90;42.10;;;;;;5095221;28;20211;-57
2022/03/12 06:15:52;;;;;;;6.65;4.43;;;1.00;41.80;;;;;;5095189;28;20200;-56
2022/03/12 06:18:22;;;;;;;5.97;4.80;;;1.00;41.50;;;;;;5095150;28;20184;-56
2022/03/12 06:20:49;;;;;;;6.65;5.00;;;1.10;41.30;;;;;;5094553;28;20235;-57
2022/03/12 06:23:16;;;;;;;7.78;4.82;;;1.20;41.20;;;;;;5095065;28;20184;-56
2022/03/12 06:25:43;;;;;;;7.50;5.15;;;1.30;41.20;;;;;;5094693;28;20573;-56
2022/03/12 06:28:12;;;;;;;9.27;4.75;;;1.40;41.10;;;;;;5094644;28;20219;-57
2022/03/12 06:30:42;;;;;;;5.60;4.85;;;1.60;41.00;;;;;;5093971;28;20220;-56
2022/03/12 06:33:10;;;;;;;7.03;4.40;;;1.70;40.80;;;;;;5094294;28;20701;-56
2022/03/12 06:35:37;;;;;;;5.40;4.20;;;1.80;40.60;;;;;;5094501;28;20212;-56
2022/03/12 06:38:05;;;;;;;6.25;4.43;;;1.90;40.30;;;;;;5095540;28;20295;-55
2022/03/12 06:40:32;;;;;;;7.57;5.30;;;2.00;40.10;;;;;;5094917;28;20221;-56
2022/03/12 06:42:59;;;;;;;6.50;4.65;;;2.10;40.00;;;;;;5094697;28;20228;-56
2022/03/12 06:45:32;;;;;;;6.22;4.75;;;2.20;39.90;;;;;;5094562;28;20627;-56
2022/03/12 06:47:59;;;;;;;7.40;4.78;;;2.20;39.60;;;;;;5094074;28;20216;-56
2022/03/12 06:50:27;;;;;;;5.22;4.35;;;2.30;39.40;;;;;;5094547;28;20220;-56
2022/03/12 06:52:56;;;;;;;6.55;4.25;;;2.30;39.20;;;;;;5094461;28;20279;-56
2022/03/12 06:55:26;;;;;;;7.18;4.90;;;2.30;39.00;;;;;;5094411;28;20223;-55
2022/03/12 06:57:54;;;;;;;6.85;4.05;;;2.30;38.80;;;;;;5094770;28;20243;-56
2022/03/12 07:00:25;;;;;;;6.18;4.60;;;2.30;38.60;;;;;;5094214;28;20307;-55
2022/03/12 07:02:53;;;;;;;8.40;4.80;;;2.30;38.60;;;;;;5094623;28;20211;-56
2022/03/12 07:05:22;;;;;;;7.20;4.47;;;2.30;38.50;;;;;;5094236;28;20620;-55
2022/03/12 07:07:49;;;;;;;12.05;5.18;;;2.30;38.60;;;;;;5094229;28;20203;-56
2022/03/12 07:10:17;;;;;;;7.45;4.45;;;2.30;38.60;;;;;;5094265;28;20220;-56
2022/03/12 07:12:44;;;;;;;6.88;5.38;;;2.30;38.60;;;;;;5094188;28;20208;-56
2022/03/12 07:15:13;;;;;;;6.47;4.70;;;2.20;38.60;;;;;;5093714;28;20671;-56
2022/03/12 07:17:41;;;;;;;5.30;4.43;;;2.20;38.60;;;;;;5093776;28;20699;-57
2022/03/12 07:20:11;;;;;;;8.88;5.05;;;2.20;38.70;;;;;;5093346;28;20228;-55
2022/03/12 07:22:39;;;;;;;6.55;5.18;;;2.20;38.60;;;;;;5093804;28;20185;-56
2022/03/12 07:25:08;;;;;;;5.88;4.57;;;2.30;38.70;;;;;;5093737;28;20200;-56
2022/03/12 07:27:35;;;;;;;7.10;5.45;;;2.30;38.70;;;;;;5093755;28;20200;-57
2022/03/12 07:30:02;;;;;;;7.10;5.63;;;2.30;38.70;;;;;;5093512;28;20223;-56
2022/03/12 07:32:29;;;;;;;6.38;5.15;;;2.40;38.80;;;;;;5093654;28;20211;-56
2022/03/12 07:34:56;;;;;;;7.82;6.00;;;2.50;38.90;;;;;;5093290;28;20702;-56
2022/03/12 07:37:25;;;;;;;6.18;4.35;;;2.60;38.90;;;;;;5093241;28;20710;-56
2022/03/12 07:39:52;;;;;;;6.45;4.70;;;2.80;38.90;;;;;;5093281;28;20295;-56
2022/03/12 07:42:19;;;;;;;5.72;4.82;;;2.90;38.70;;;;;;5092895;28;20273;-56
2022/03/12 07:44:46;;;;;;;7.22;4.85;;;3.10;38.60;;;;;;5093584;28;20211;-55
2022/03/12 07:47:13;;;;;;;5.30;4.07;;;3.30;38.40;;;;;;5093391;28;20208;-56
2022/03/12 07:49:41;;;;;;;3.85;3.55;;;3.40;38.10;;;;;;5093633;28;20224;-55
2022/03/12 07:52:10;;;;;;;5.60;4.70;;;3.60;37.70;;;;;;5093513;28;20228;-55
2022/03/12 07:54:39;;;;;;;5.03;4.00;;;3.80;37.50;;;;;;5093505;28;20268;-56
2022/03/12 07:57:06;;;;;;;5.03;4.10;;;4.00;37.10;;;;;;5093812;28;20196;-56
2022/03/12 07:59:35;;;;;;;9.73;4.80;;;4.10;36.80;;;;;;5093860;28;20196;-55
2022/03/12 08:02:02;;;;;;;6.53;4.80;;;4.30;36.50;;;;;;5093360;28;20311;-57
2022/03/12 08:04:33;;;;;;;5.50;4.50;;;4.40;36.20;;;;;;5094167;28;20207;-55
2022/03/12 08:07:02;;;;;;;5.80;4.72;;;4.60;36.10;;;;;;5093960;28;20197;-57
2022/03/12 08:09:29;;;;;;;7.50;5.40;;;4.70;35.90;;;;;;5093855;28;20216;-56
2022/03/12 08:11:58;;;;;;;7.38;4.93;;;4.90;35.70;;;;;;5094168;28;20230;-56
2022/03/12 08:14:26;;;;;;;6.97;4.97;;;5.10;35.50;;;;;;5093724;28;20212;-56
2022/03/12 08:16:55;;;;;;;5.28;4.05;;;5.20;35.20;;;;;;5093741;28;20207;-56
2022/03/12 08:19:22;;;;;;;4.15;3.72;;;5.30;34.90;;;;;;5093290;28;20192;-56
2022/03/12 08:21:50;;;;;;;7.00;4.30;;;5.40;34.60;;;;;;5092832;28;20232;-57
2022/03/12 08:24:18;;;;;;;4.68;4.28;;;5.60;35.10;;;;;;5093155;28;20200;-57
2022/03/12 08:26:46;;;;;;;6.22;4.57;;;5.60;34.80;;;;;;5092941;28;20208;-57
2022/03/12 08:29:16;;;;;;;4.88;4.13;;;5.70;34.20;;;;;;5093176;28;20246;-57
2022/03/12 08:31:44;;;;;;;6.93;4.15;;;5.80;34.10;;;;;;5092861;28;20763;-57
2022/03/12 08:34:12;;;;;;;6.28;4.50;;;6.00;34.10;;;;;;5092970;28;20197;-58
2022/03/12 08:36:39;;;;;;;7.68;5.03;;;6.10;33.80;;;;;;5093034;28;20276;-58
2022/03/12 08:39:06;;;;;;;5.80;4.72;;;6.20;33.60;;;;;;5092770;28;20684;-56
2022/03/12 08:41:34;;;;;;;7.95;4.38;;;6.30;33.40;;;;;;5092986;28;20278;-57
2022/03/12 08:44:02;;;;;;;7.50;4.88;;;6.40;33.20;;;;;;5093095;28;20257;-57
2022/03/12 08:46:30;;;;;;;5.10;4.25;;;6.50;33.00;;;;;;5092912;28;20200;-57
2022/03/12 08:48:57;;;;;;;4.72;4.30;;;6.60;32.70;;;;;;5092998;28;20588;-57
2022/03/12 08:51:24;;;;;;;7.03;4.25;;;6.80;32.50;;;;;;5092516;28;20704;-57
2022/03/12 08:53:51;;;;;;;8.35;5.18;;;6.90;32.40;;;;;;5092490;28;20200;-56
2022/03/12 08:56:19;;;;;;;6.38;5.53;;;7.00;32.30;;;;;;5096612;28;20207;-56
2022/03/12 08:58:47;;;;;;;7.30;4.60;;;7.10;32.00;;;;;;5096720;28;20680;-57
2022/03/12 09:01:15;;;;;;;6.75;5.03;;;7.30;32.10;;;;;;5096729;28;20225;-57
2022/03/12 09:03:44;;;;;;;6.03;5.03;;;7.40;32.00;;;;;;5096751;28;20204;-58
2022/03/12 09:06:11;;;;;;;5.60;4.70;;;7.50;31.60;;;;;;5096201;28;20200;-57
2022/03/12 09:08:38;;;;;;;7.72;4.90;;;7.60;31.70;;;;;;5096240;28;20204;-57
2022/03/12 09:11:06;;;;;;;7.63;4.80;;;7.70;31.30;;;;;;5096285;28;20220;-56
2022/03/12 09:13:33;;;;;;;8.05;4.50;;;7.80;31.00;;;;;;5095865;28;20200;-56
2022/03/12 09:16:00;;;;;;;4.82;4.35;;;7.90;31.00;;;;;;5095638;28;20208;-56
2022/03/12 09:18:27;;;;;;;7.13;4.85;;;8.00;30.70;;;;;;5096154;28;20204;-58
2022/03/12 09:20:56;;;;;;;6.82;4.53;;;8.10;30.60;;;;;;5095801;28;20220;-57
2022/03/12 09:23:23;;;;;;;6.88;4.82;;;8.20;30.50;;;;;;5096029;28;20211;-56
2022/03/12 09:25:52;;;;;;;7.40;4.55;;;8.30;30.30;;;;;;5096071;28;20571;-58
2022/03/12 09:28:20;;;;;;;8.35;5.18;;;8.40;30.00;;;;;;5095871;28;20675;-58
2022/03/12 09:30:50;;;;;;;5.85;4.88;;;8.40;29.70;;;;;;5095697;28;20231;-58
2022/03/12 09:33:18;;;;;;;5.60;4.90;;;8.60;29.60;;;;;;5095528;28;20201;-56
2022/03/12 09:35:45;;;;;;;6.88;4.75;;;8.60;29.20;;;;;;5095824;28;20197;-57
2022/03/12 09:38:15;;;;;;;5.38;4.65;;;8.80;29.20;;;;;;5095556;28;20204;-58
2022/03/12 09:40:43;;;;;;;10.30;5.35;;;8.90;29.00;;;;;;5095676;28;20216;-56
2022/03/12 09:43:11;;;;;;;7.78;4.53;;;9.10;28.80;;;;;;5095412;28;20254;-56
2022/03/12 09:45:38;;;;;;;7.35;5.00;;;9.20;28.70;;;;;;5095489;28;20201;-57
2022/03/12 09:48:06;;;;;;;5.77;4.43;;;9.30;28.50;;;;;;5095186;28;20196;-57
2022/03/12 09:50:33;;;;;;;5.53;4.60;;;9.40;28.20;;;;;;5095162;28;20993;-57
2022/03/12 09:53:00;;;;;;;6.00;5.20;;;9.50;28.20;;;;;;5095357;28;20204;-56
2022/03/12 09:55:28;;;;;;;5.27;4.40;;;9.50;28.10;;;;;;5095228;28;20449;-56
2022/03/12 09:57:55;;;;;;;6.77;5.30;;;9.60;27.90;;;;;;5094843;28;20934;-56
2022/03/12 10:00:25;;;;;;;5.77;4.67;;;9.70;27.90;;;;;;5094993;28;20461;-56
2022/03/12 10:02:52;;;;;;;6.60;4.57;;;9.80;28.00;;;;;;5096079;28;20446;-56
2022/03/12 10:05:19;;;;;;;11.63;5.27;;;9.90;27.90;;;;;;5094733;28;20872;-56
2022/03/12 10:07:46;;;;;;;6.10;4.80;;;9.90;27.70;;;;;;5095057;28;20457;-56
2022/03/12 10:10:15;;;;;;;6.37;5.10;;;10.00;27.00;;;;;;5094920;28;20876;-58
2022/03/12 10:12:44;;;;;;;7.00;5.70;;;10.10;27.10;;;;;;5094795;28;20922;-56
2022/03/12 10:15:12;;;;;;;5.87;4.87;;;10.20;27.10;;;;;;5095018;28;20442;-56
2022/03/12 10:17:40;;;;;;;5.87;5.27;;;10.20;27.00;;;;;;5094895;28;20439;-57
2022/03/12 10:20:11;;;;;;;6.43;4.83;;;10.30;27.10;;;;;;5094613;28;20480;-57
2022/03/12 10:22:38;;;;;;;8.63;5.70;;;10.30;27.20;;;;;;5095763;22;20491;-53
2022/03/12 10:25:07;;;;;;;8.83;5.90;;;10.40;27.40;;;;;;5075612;28;20447;-53
2022/03/12 10:27:34;;;;;;;9.27;5.27;;;10.50;27.60;;;;;;5076029;28;20457;-53
2022/03/12 10:30:04;;;;;;;8.60;5.60;;;10.60;27.70;;;;;;5076642;28;21047;-53
2022/03/12 10:32:34;;;;;;;7.17;5.13;;;10.80;27.60;;;;;;5092224;28;20469;-53
2022/03/12 10:35:05;;;;;;;5.70;5.10;;;10.80;27.30;;;;;;5096419;28;20546;-53
2022/03/12 10:37:34;;;;;;;6.53;5.87;;;10.80;27.30;;;;;;5096200;28;21001;-53
2022/03/12 10:40:06;;;;;;;7.57;6.83;;;10.90;27.30;;;;;;5096255;28;20464;-54
2022/03/12 10:42:33;;;;;;;7.33;5.43;;;10.90;27.20;;;;;;5095160;28;20466;-54
2022/03/12 10:45:12;;;;;;;6.30;5.17;;;11.00;27.00;;;;;;5095296;28;20449;-54
2022/03/12 10:47:43;;;;;;;5.97;5.20;;;11.00;27.00;;;;;;5094882;28;21019;-54
2022/03/12 10:50:15;;;;;;;6.47;5.73;;;11.00;27.00;;;;;;5094419;28;20481;-54
2022/03/12 10:52:47;;;;;;;6.87;5.93;;;11.10;27.10;;;;;;5095306;28;20811;-53
2022/03/12 10:55:19;;;;;;;8.20;5.77;;;11.20;27.20;;;;;;5094377;28;20435;-53
2022/03/12 10:58:04;;;;;;;5.73;5.23;;;11.40;27.40;;;;;;5094287;28;20547;-53
2022/03/12 11:00:37;;;;;;;6.90;5.20;;;11.50;27.40;;;;;;5094540;28;20422;-53
2022/03/12 11:03:08;;;;;;;5.47;4.97;;;11.60;27.50;;;;;;5094830;28;20453;-54
2022/03/12 11:05:39;;;;;;;6.90;5.10;;;11.70;27.60;;;;;;5097087;28;20427;-52
2022/03/12 11:08:16;;;;;;;9.40;5.70;;;11.80;27.60;;;;;;5093995;28;20473;-55
2022/03/12 11:10:52;;;;;;;9.03;5.93;;;11.90;27.60;;;;;;5093921;28;20464;-56
2022/03/12 11:13:39;;;;;;;9.10;5.03;;;11.90;27.30;;;;;;5094301;28;20445;-56
2022/03/12 11:16:12;;;;;;;6.73;5.50;;;11.90;27.30;;;;;;5094364;28;20815;-54
2022/03/12 11:19:07;;;;;;;9.10;6.20;;;11.90;27.30;;;;;;5093406;28;20443;-54
2022/03/12 11:21:37;;;;;;;7.67;5.40;;;11.90;27.40;;;;;;5074538;28;20482;-56
2022/03/12 11:24:06;;;;;;;6.10;5.50;;;12.00;27.50;;;;;;5094149;28;20453;-55
2022/03/12 11:26:48;;;;;;;6.87;5.50;;;12.10;27.30;;;;;;5093756;28;20450;-56
2022/03/12 11:29:16;;;;;;;9.00;5.90;;;12.00;27.20;;;;;;5094024;28;20434;-55
2022/03/12 11:31:48;;;;;;;9.83;6.00;;;12.00;27.20;;;;;;5093421;28;20458;-55
2022/03/12 11:34:23;;;;;;;8.00;6.20;;;12.00;27.30;;;;;;5093526;28;20903;-55
2022/03/12 11:37:12;;;;;;;7.93;5.67;;;12.10;27.30;;;;;;5093226;28;20434;-55
2022/03/12 11:39:41;;;;;;;6.93;4.93;;;12.30;27.30;;;;;;5093312;28;20480;-55
2022/03/12 11:42:11;;;;;;;8.13;5.63;;;12.40;27.40;;;;;;5093550;28;20458;-54
2022/03/12 11:44:44;;;;;;;7.13;5.23;;;12.60;27.40;;;;;;5093569;28;20488;-55
2022/03/12 11:47:14;;;;;;;8.63;6.20;;;12.60;27.20;;;;;;5093194;28;20466;-55
2022/03/12 11:49:42;;;;;;;7.13;5.27;;;12.50;27.10;;;;;;5093265;28;20474;-54
2022/03/12 11:52:09;;;;;;;7.10;5.50;;;12.50;27.20;;;;;;5093502;28;20514;-54
2022/03/12 11:54:43;;;;;;;9.60;6.53;;;12.50;27.20;;;;;;5094218;28;20445;-55
2022/03/12 11:57:11;;;;;;;6.30;5.50;;;12.60;27.10;;;;;;5093794;28;20419;-55
2022/03/12 11:59:39;;;;;;;7.37;5.90;;;12.60;27.20;;;;;;5094547;28;20457;-56
2022/03/12 12:02:25;;;;;;;8.70;6.60;;;12.60;27.30;;;;;;5095227;28;20462;-54
2022/03/12 12:04:53;;;;;;;6.90;6.10;;;12.50;27.30;;;;;;5094078;28;20423;-55
2022/03/12 12:07:20;;;;;;;7.30;6.40;;;12.60;27.50;;;;;;5093042;28;20445;-54
2022/03/12 12:09:48;;;;;;;7.13;6.43;;;12.70;27.70;;;;;;5093441;28;20489;-55
2022/03/12 12:12:15;;;;;;;6.10;5.50;;;12.80;27.60;;;;;;5092656;28;20488;-55
2022/03/12 12:14:42;;;;;;;6.70;5.90;;;12.70;27.30;;;;;;5093139;28;20446;-54
2022/03/12 12:17:10;;;;;;;6.23;5.63;;;12.70;27.30;;;;;;5092821;28;20961;-55
2022/03/12 12:19:39;;;;;;;6.33;5.73;;;12.70;27.50;;;;;;5093077;28;20477;-55
2022/03/12 12:22:07;;;;;;;6.60;5.97;;;12.80;27.50;;;;;;5092585;28;20479;-54
2022/03/12 12:24:36;;;;;;;10.70;6.67;;;12.80;27.40;;;;;;5093186;28;20454;-54
2022/03/12 12:27:06;;;;;;;8.73;5.87;;;12.80;27.40;;;;;;5096818;28;20446;-55
2022/03/12 12:29:46;;;;;;;7.00;6.30;;;12.90;27.50;;;;;;5098165;28;20504;-55
2022/03/12 12:32:15;;;;;;;7.40;6.57;;;12.90;27.30;;;;;;5100393;28;20454;-56
2022/03/12 12:35:18;;;;;;;8.17;6.70;;;12.90;27.30;;;;;;5099870;28;20446;-56
2022/03/12 12:37:48;;;;;;;7.20;6.13;;;12.90;27.40;;;;;;5100023;28;20521;-56
2022/03/12 12:40:47;;;;;;;8.23;6.03;;;13.10;27.60;;;;;;5097869;28;20429;-56
2022/03/12 12:43:18;;;;;;;5.63;5.10;;;13.30;27.60;;;;;;5081603;28;20445;-56
2022/03/12 12:46:05;;;;;;;8.77;6.30;;;13.30;27.50;;;;;;5097118;28;20444;-55
2022/03/12 12:48:34;;;;;;;9.13;6.40;;;13.40;27.60;;;;;;5097143;28;20495;-55
2022/03/12 12:51:18;;;;;;;9.20;6.90;;;13.40;27.40;;;;;;5096808;28;20497;-55
2022/03/12 12:53:47;;;;;;;9.43;6.40;;;13.40;27.30;;;;;;5094814;28;20441;-55
2022/03/12 12:56:21;;;;;;;7.93;5.90;;;13.50;27.50;;;;;;5097114;28;20442;-55
2022/03/12 12:59:04;;;;;;;7.07;6.37;;;13.60;27.60;;;;;;5096348;28;20483;-54
2022/03/12 13:01:35;;;;;;;6.93;5.37;;;13.70;27.60;;;;;;5096456;28;20458;-56
2022/03/12 13:04:04;;;;;;;6.90;6.20;;;13.80;27.50;;;;;;5096381;28;20898;-56
2022/03/12 13:06:52;;;;;;;8.50;6.43;;;13.80;27.70;;;;;;5096475;28;20495;-56